sensor_id;sensor_type;location;lat;lon;timestamp;P1;durP1;ratioP1;P2;durP2;ratioP2
71570;SDS011;59407;42.682;23.322;2022-11-30T00:00:28;7.80;;;4.47;;
71570;SDS011;59407;42.682;23.322;2022-11-30T00:02:54;9.57;;;4.67;;
71570;SDS011;59407;42.682;23.322;2022-11-30T00:05:21;8.65;;;4.43;;
71570;SDS011;59407;42.682;23.322;2022-11-30T00:07:47;7.18;;;3.92;;
71570;SDS011;59407;42.682;23.322;2022-11-30T00:10:14;8.43;;;5.43;;
71570;SDS011;59407;42.682;23.322;2022-11-30T00:12:39;8.98;;;4.43;;
71570;SDS011;59407;42.682;23.322;2022-11-30T00:15:11;9.05;;;5.47;;
71570;SDS011;59407;42.682;23.322;2022-11-30T00:17:41;6.82;;;3.92;;
71570;SDS011;59407;42.682;23.322;2022-11-30T00:20:08;7.03;;;3.93;;
71570;SDS011;59407;42.682;23.322;2022-11-30T00:22:34;7.30;;;4.30;;
71570;SDS011;59407;42.682;23.322;2022-11-30T00:25:00;6.88;;;4.10;;
71570;SDS011;59407;42.682;23.322;2022-11-30T00:27:27;6.70;;;3.40;;
71570;SDS011;59407;42.682;23.322;2022-11-30T00:29:53;6.88;;;4.45;;
71570;SDS011;59407;42.682;23.322;2022-11-30T00:32:19;7.83;;;4.37;;
71570;SDS011;59407;42.682;23.322;2022-11-30T00:34:45;8.40;;;4.80;;
71570;SDS011;59407;42.682;23.322;2022-11-30T00:37:10;9.83;;;5.03;;
71570;SDS011;59407;42.682;23.322;2022-11-30T00:39:36;7.90;;;4.83;;
71570;SDS011;59407;42.682;23.322;2022-11-30T00:42:03;7.97;;;4.65;;
71570;SDS011;59407;42.682;23.322;2022-11-30T00:44:28;7.63;;;4.75;;
71570;SDS011;59407;42.682;23.322;2022-11-30T00:46:54;7.87;;;4.90;;
71570;SDS011;59407;42.682;23.322;2022-11-30T00:49:19;8.47;;;4.83;;
71570;SDS011;59407;42.682;23.322;2022-11-30T00:51:45;7.88;;;5.03;;
71570;SDS011;59407;42.682;23.322;2022-11-30T00:54:11;9.03;;;5.10;;
71570;SDS011;59407;42.682;23.322;2022-11-30T00:56:36;9.73;;;5.47;;
71570;SDS011;59407;42.682;23.322;2022-11-30T00:59:02;9.85;;;5.65;;
71570;SDS011;59407;42.682;23.322;2022-11-30T01:01:28;8.60;;;4.67;;
71570;SDS011;59407;42.682;23.322;2022-11-30T01:03:53;8.63;;;4.40;;
71570;SDS011;59407;42.682;23.322;2022-11-30T01:06:20;9.70;;;5.53;;
71570;SDS011;59407;42.682;23.322;2022-11-30T01:08:46;9.63;;;5.43;;
71570;SDS011;59407;42.682;23.322;2022-11-30T01:11:17;9.77;;;5.67;;
71570;SDS011;59407;42.682;23.322;2022-11-30T01:13:46;8.40;;;4.97;;
71570;SDS011;59407;42.682;23.322;2022-11-30T01:16:13;7.75;;;4.25;;
71570;SDS011;59407;42.682;23.322;2022-11-30T01:18:41;7.00;;;4.03;;
71570;SDS011;59407;42.682;23.322;2022-11-30T01:21:08;6.25;;;4.20;;
71570;SDS011;59407;42.682;23.322;2022-11-30T01:23:34;7.93;;;3.43;;
71570;SDS011;59407;42.682;23.322;2022-11-30T01:26:00;6.03;;;3.55;;
71570;SDS011;59407;42.682;23.322;2022-11-30T01:28:25;6.60;;;3.60;;
71570;SDS011;59407;42.682;23.322;2022-11-30T01:30:55;7.18;;;3.50;;
71570;SDS011;59407;42.682;23.322;2022-11-30T01:33:24;6.57;;;3.63;;
71570;SDS011;59407;42.682;23.322;2022-11-30T01:38:48;4.60;;;3.00;;
71570;SDS011;59407;42.682;23.322;2022-11-30T01:41:19;5.05;;;3.00;;
71570;SDS011;59407;42.682;23.322;2022-11-30T01:43:50;6.22;;;3.25;;
71570;SDS011;59407;42.682;23.322;2022-11-30T01:51:30;6.45;;;3.17;;
71570;SDS011;59407;42.682;23.322;2022-11-30T01:54:00;7.28;;;3.78;;
71570;SDS011;59407;42.682;23.322;2022-11-30T01:56:27;6.53;;;3.40;;
71570;SDS011;59407;42.682;23.322;2022-11-30T01:58:54;5.47;;;3.50;;
71570;SDS011;59407;42.682;23.322;2022-11-30T02:01:20;6.05;;;3.17;;
71570;SDS011;59407;42.682;23.322;2022-11-30T02:03:48;5.72;;;3.40;;
71570;SDS011;59407;42.682;23.322;2022-11-30T02:06:19;5.20;;;3.40;;
71570;SDS011;59407;42.682;23.322;2022-11-30T02:08:45;7.32;;;3.20;;
71570;SDS011;59407;42.682;23.322;2022-11-30T02:11:11;5.93;;;3.50;;
71570;SDS011;59407;42.682;23.322;2022-11-30T02:13:51;5.88;;;3.17;;
71570;SDS011;59407;42.682;23.322;2022-11-30T02:21:58;8.23;;;4.35;;
71570;SDS011;59407;42.682;23.322;2022-11-30T02:30:35;10.10;;;4.75;;
71570;SDS011;59407;42.682;23.322;2022-11-30T02:32:55;8.40;;;4.45;;
71570;SDS011;59407;42.682;23.322;2022-11-30T02:35:34;8.98;;;5.05;;
71570;SDS011;59407;42.682;23.322;2022-11-30T02:38:01;8.80;;;4.83;;
71570;SDS011;59407;42.682;23.322;2022-11-30T02:40:28;8.68;;;5.07;;
71570;SDS011;59407;42.682;23.322;2022-11-30T02:42:53;8.50;;;4.83;;
71570;SDS011;59407;42.682;23.322;2022-11-30T02:45:21;7.63;;;4.38;;
71570;SDS011;59407;42.682;23.322;2022-11-30T02:48:04;8.35;;;5.25;;
71570;SDS011;59407;42.682;23.322;2022-11-30T02:50:35;7.68;;;5.15;;
71570;SDS011;59407;42.682;23.322;2022-11-30T02:53:05;8.63;;;5.43;;
71570;SDS011;59407;42.682;23.322;2022-11-30T02:55:31;8.87;;;5.47;;
71570;SDS011;59407;42.682;23.322;2022-11-30T02:57:56;9.55;;;5.65;;
71570;SDS011;59407;42.682;23.322;2022-11-30T03:00:22;8.90;;;5.00;;
71570;SDS011;59407;42.682;23.322;2022-11-30T03:02:49;8.32;;;5.15;;
71570;SDS011;59407;42.682;23.322;2022-11-30T03:05:15;8.27;;;4.63;;
71570;SDS011;59407;42.682;23.322;2022-11-30T03:07:40;7.63;;;4.83;;
71570;SDS011;59407;42.682;23.322;2022-11-30T03:10:06;9.20;;;4.70;;
71570;SDS011;59407;42.682;23.322;2022-11-30T03:12:32;7.00;;;4.90;;
71570;SDS011;59407;42.682;23.322;2022-11-30T03:14:58;8.10;;;4.63;;
71570;SDS011;59407;42.682;23.322;2022-11-30T03:17:24;8.63;;;4.78;;
71570;SDS011;59407;42.682;23.322;2022-11-30T03:19:51;8.15;;;4.38;;
71570;SDS011;59407;42.682;23.322;2022-11-30T03:22:17;7.80;;;4.90;;
71570;SDS011;59407;42.682;23.322;2022-11-30T03:24:42;8.68;;;4.70;;
71570;SDS011;59407;42.682;23.322;2022-11-30T03:27:09;6.43;;;3.83;;
71570;SDS011;59407;42.682;23.322;2022-11-30T03:29:35;7.82;;;4.53;;
71570;SDS011;59407;42.682;23.322;2022-11-30T03:32:01;9.45;;;4.85;;
71570;SDS011;59407;42.682;23.322;2022-11-30T03:34:26;7.83;;;4.53;;
71570;SDS011;59407;42.682;23.322;2022-11-30T03:36:52;6.60;;;4.50;;
71570;SDS011;59407;42.682;23.322;2022-11-30T03:39:19;6.38;;;3.95;;
71570;SDS011;59407;42.682;23.322;2022-11-30T03:41:44;6.90;;;4.40;;
71570;SDS011;59407;42.682;23.322;2022-11-30T03:44:10;6.80;;;4.43;;
71570;SDS011;59407;42.682;23.322;2022-11-30T03:46:36;7.03;;;3.97;;
71570;SDS011;59407;42.682;23.322;2022-11-30T03:49:02;6.93;;;4.72;;
71570;SDS011;59407;42.682;23.322;2022-11-30T03:51:28;6.50;;;4.40;;
71570;SDS011;59407;42.682;23.322;2022-11-30T03:53:54;9.52;;;4.53;;
71570;SDS011;59407;42.682;23.322;2022-11-30T03:56:19;6.17;;;4.30;;
71570;SDS011;59407;42.682;23.322;2022-11-30T03:58:45;6.05;;;3.90;;
71570;SDS011;59407;42.682;23.322;2022-11-30T04:01:12;5.03;;;3.65;;
71570;SDS011;59407;42.682;23.322;2022-11-30T04:03:39;6.40;;;3.97;;
71570;SDS011;59407;42.682;23.322;2022-11-30T04:06:05;5.30;;;3.73;;
71570;SDS011;59407;42.682;23.322;2022-11-30T04:08:33;6.47;;;4.13;;
71570;SDS011;59407;42.682;23.322;2022-11-30T04:11:00;7.20;;;4.30;;
71570;SDS011;59407;42.682;23.322;2022-11-30T04:13:26;8.02;;;4.07;;
71570;SDS011;59407;42.682;23.322;2022-11-30T04:15:52;8.27;;;5.15;;
71570;SDS011;59407;42.682;23.322;2022-11-30T04:18:19;7.97;;;4.47;;
71570;SDS011;59407;42.682;23.322;2022-11-30T04:20:45;7.35;;;4.22;;
71570;SDS011;59407;42.682;23.322;2022-11-30T04:23:16;9.25;;;4.88;;
71570;SDS011;59407;42.682;23.322;2022-11-30T04:25:43;7.82;;;4.25;;
71570;SDS011;59407;42.682;23.322;2022-11-30T04:28:09;8.30;;;4.03;;
71570;SDS011;59407;42.682;23.322;2022-11-30T04:30:35;8.88;;;4.30;;
71570;SDS011;59407;42.682;23.322;2022-11-30T04:33:02;8.57;;;4.18;;
71570;SDS011;59407;42.682;23.322;2022-11-30T04:35:28;7.47;;;4.80;;
71570;SDS011;59407;42.682;23.322;2022-11-30T04:37:55;9.43;;;4.90;;
71570;SDS011;59407;42.682;23.322;2022-11-30T04:40:22;8.15;;;5.05;;
71570;SDS011;59407;42.682;23.322;2022-11-30T04:42:48;10.98;;;5.53;;
71570;SDS011;59407;42.682;23.322;2022-11-30T04:45:13;7.30;;;4.10;;
71570;SDS011;59407;42.682;23.322;2022-11-30T04:47:44;7.70;;;4.68;;
71570;SDS011;59407;42.682;23.322;2022-11-30T04:50:09;7.93;;;5.03;;
71570;SDS011;59407;42.682;23.322;2022-11-30T04:52:35;6.43;;;4.67;;
71570;SDS011;59407;42.682;23.322;2022-11-30T04:55:00;8.18;;;4.28;;
71570;SDS011;59407;42.682;23.322;2022-11-30T04:57:28;8.97;;;4.63;;
71570;SDS011;59407;42.682;23.322;2022-11-30T04:59:54;9.38;;;5.40;;
71570;SDS011;59407;42.682;23.322;2022-11-30T05:02:19;9.70;;;5.30;;
71570;SDS011;59407;42.682;23.322;2022-11-30T05:04:45;8.55;;;5.00;;
71570;SDS011;59407;42.682;23.322;2022-11-30T05:07:10;7.70;;;4.37;;
71570;SDS011;59407;42.682;23.322;2022-11-30T05:09:37;7.97;;;5.07;;
71570;SDS011;59407;42.682;23.322;2022-11-30T05:12:03;8.70;;;5.40;;
71570;SDS011;59407;42.682;23.322;2022-11-30T05:14:28;9.10;;;4.97;;
71570;SDS011;59407;42.682;23.322;2022-11-30T05:16:54;7.87;;;5.30;;
71570;SDS011;59407;42.682;23.322;2022-11-30T05:19:19;6.10;;;4.53;;
71570;SDS011;59407;42.682;23.322;2022-11-30T05:21:45;7.70;;;4.47;;
71570;SDS011;59407;42.682;23.322;2022-11-30T05:24:10;6.03;;;4.15;;
71570;SDS011;59407;42.682;23.322;2022-11-30T05:26:36;6.40;;;4.20;;
71570;SDS011;59407;42.682;23.322;2022-11-30T05:29:05;7.22;;;4.20;;
71570;SDS011;59407;42.682;23.322;2022-11-30T05:31:31;9.87;;;6.10;;
71570;SDS011;59407;42.682;23.322;2022-11-30T05:33:57;7.50;;;4.88;;
71570;SDS011;59407;42.682;23.322;2022-11-30T05:36:22;8.32;;;5.40;;
71570;SDS011;59407;42.682;23.322;2022-11-30T05:38:48;8.87;;;4.73;;
71570;SDS011;59407;42.682;23.322;2022-11-30T05:41:13;7.10;;;3.80;;
71570;SDS011;59407;42.682;23.322;2022-11-30T05:43:41;7.57;;;3.92;;
71570;SDS011;59407;42.682;23.322;2022-11-30T05:46:07;9.27;;;3.80;;
71570;SDS011;59407;42.682;23.322;2022-11-30T05:48:33;8.18;;;4.05;;
71570;SDS011;59407;42.682;23.322;2022-11-30T05:51:10;6.50;;;3.88;;
71570;SDS011;59407;42.682;23.322;2022-11-30T05:53:39;6.50;;;3.60;;
71570;SDS011;59407;42.682;23.322;2022-11-30T05:56:06;6.03;;;3.80;;
71570;SDS011;59407;42.682;23.322;2022-11-30T05:58:33;5.50;;;3.33;;
71570;SDS011;59407;42.682;23.322;2022-11-30T06:00:59;5.78;;;3.50;;
71570;SDS011;59407;42.682;23.322;2022-11-30T06:03:28;5.13;;;3.63;;
71570;SDS011;59407;42.682;23.322;2022-11-30T06:05:56;4.53;;;3.38;;
71570;SDS011;59407;42.682;23.322;2022-11-30T06:08:22;4.77;;;3.17;;
71570;SDS011;59407;42.682;23.322;2022-11-30T06:10:48;6.57;;;3.70;;
71570;SDS011;59407;42.682;23.322;2022-11-30T06:13:14;4.73;;;3.40;;
71570;SDS011;59407;42.682;23.322;2022-11-30T06:15:42;8.00;;;3.20;;
71570;SDS011;59407;42.682;23.322;2022-11-30T06:18:08;5.95;;;3.42;;
71570;SDS011;59407;42.682;23.322;2022-11-30T06:20:35;6.80;;;3.15;;
71570;SDS011;59407;42.682;23.322;2022-11-30T06:23:04;6.23;;;3.67;;
71570;SDS011;59407;42.682;23.322;2022-11-30T06:25:29;5.82;;;3.30;;
71570;SDS011;59407;42.682;23.322;2022-11-30T06:27:56;6.28;;;3.78;;
71570;SDS011;59407;42.682;23.322;2022-11-30T06:30:21;5.60;;;3.17;;
71570;SDS011;59407;42.682;23.322;2022-11-30T06:32:47;5.67;;;3.40;;
71570;SDS011;59407;42.682;23.322;2022-11-30T06:35:14;4.22;;;3.20;;
71570;SDS011;59407;42.682;23.322;2022-11-30T06:37:40;4.77;;;2.93;;
71570;SDS011;59407;42.682;23.322;2022-11-30T06:40:06;4.17;;;2.67;;
71570;SDS011;59407;42.682;23.322;2022-11-30T06:42:32;7.45;;;2.85;;
71570;SDS011;59407;42.682;23.322;2022-11-30T06:44:58;4.80;;;3.00;;
71570;SDS011;59407;42.682;23.322;2022-11-30T06:47:23;4.30;;;2.87;;
71570;SDS011;59407;42.682;23.322;2022-11-30T06:49:49;4.15;;;2.60;;
71570;SDS011;59407;42.682;23.322;2022-11-30T06:52:15;9.67;;;5.23;;
71570;SDS011;59407;42.682;23.322;2022-11-30T06:54:40;3.67;;;2.43;;
71570;SDS011;59407;42.682;23.322;2022-11-30T06:57:05;5.37;;;3.07;;
71570;SDS011;59407;42.682;23.322;2022-11-30T06:59:31;6.60;;;3.30;;
71570;SDS011;59407;42.682;23.322;2022-11-30T07:01:56;4.70;;;2.97;;
71570;SDS011;59407;42.682;23.322;2022-11-30T07:04:22;4.40;;;2.80;;
71570;SDS011;59407;42.682;23.322;2022-11-30T07:06:48;4.30;;;2.30;;
71570;SDS011;59407;42.682;23.322;2022-11-30T07:09:14;9.57;;;4.33;;
71570;SDS011;59407;42.682;23.322;2022-11-30T07:11:39;7.60;;;4.77;;
71570;SDS011;59407;42.682;23.322;2022-11-30T07:14:05;13.17;;;5.40;;
71570;SDS011;59407;42.682;23.322;2022-11-30T07:16:31;9.33;;;5.37;;
71570;SDS011;59407;42.682;23.322;2022-11-30T07:18:56;10.93;;;6.70;;
71570;SDS011;59407;42.682;23.322;2022-11-30T07:21:22;17.10;;;9.47;;
71570;SDS011;59407;42.682;23.322;2022-11-30T07:23:47;9.43;;;5.30;;
71570;SDS011;59407;42.682;23.322;2022-11-30T07:26:31;7.22;;;4.63;;
71570;SDS011;59407;42.682;23.322;2022-11-30T07:28:57;9.68;;;5.70;;
71570;SDS011;59407;42.682;23.322;2022-11-30T07:31:23;10.33;;;5.57;;
71570;SDS011;59407;42.682;23.322;2022-11-30T07:33:52;14.90;;;8.18;;
71570;SDS011;59407;42.682;23.322;2022-11-30T07:36:19;12.93;;;7.15;;
71570;SDS011;59407;42.682;23.322;2022-11-30T07:38:45;8.27;;;5.50;;
71570;SDS011;59407;42.682;23.322;2022-11-30T07:41:11;7.60;;;4.83;;
71570;SDS011;59407;42.682;23.322;2022-11-30T07:43:38;9.40;;;5.43;;
71570;SDS011;59407;42.682;23.322;2022-11-30T07:46:03;10.87;;;5.87;;
71570;SDS011;59407;42.682;23.322;2022-11-30T07:48:30;21.17;;;8.10;;
71570;SDS011;59407;42.682;23.322;2022-11-30T07:53:45;7.40;;;4.45;;
71570;SDS011;59407;42.682;23.322;2022-11-30T07:56:13;6.63;;;4.28;;
71570;SDS011;59407;42.682;23.322;2022-11-30T07:58:45;8.95;;;4.97;;
71570;SDS011;59407;42.682;23.322;2022-11-30T08:01:12;7.37;;;3.17;;
71570;SDS011;59407;42.682;23.322;2022-11-30T08:03:39;4.93;;;3.42;;
71570;SDS011;59407;42.682;23.322;2022-11-30T08:06:14;6.05;;;3.80;;
71570;SDS011;59407;42.682;23.322;2022-11-30T08:08:50;6.03;;;3.10;;
71570;SDS011;59407;42.682;23.322;2022-11-30T08:11:19;7.60;;;4.35;;
71570;SDS011;59407;42.682;23.322;2022-11-30T08:13:48;4.47;;;2.88;;
71570;SDS011;59407;42.682;23.322;2022-11-30T08:16:15;10.37;;;5.50;;
71570;SDS011;59407;42.682;23.322;2022-11-30T08:18:43;6.45;;;3.78;;
71570;SDS011;59407;42.682;23.322;2022-11-30T08:21:10;8.45;;;3.03;;
71570;SDS011;59407;42.682;23.322;2022-11-30T08:23:38;4.00;;;2.70;;
71570;SDS011;59407;42.682;23.322;2022-11-30T08:26:14;4.82;;;2.65;;
71570;SDS011;59407;42.682;23.322;2022-11-30T08:28:42;3.93;;;2.20;;
71570;SDS011;59407;42.682;23.322;2022-11-30T08:31:10;4.55;;;2.10;;
71570;SDS011;59407;42.682;23.322;2022-11-30T08:33:38;4.55;;;2.45;;
71570;SDS011;59407;42.682;23.322;2022-11-30T08:36:05;4.80;;;1.80;;
71570;SDS011;59407;42.682;23.322;2022-11-30T08:38:33;3.58;;;2.20;;
71570;SDS011;59407;42.682;23.322;2022-11-30T08:40:58;3.10;;;1.70;;
71570;SDS011;59407;42.682;23.322;2022-11-30T08:43:26;4.53;;;2.05;;
71570;SDS011;59407;42.682;23.322;2022-11-30T08:45:54;3.60;;;1.85;;
71570;SDS011;59407;42.682;23.322;2022-11-30T08:48:22;5.97;;;2.70;;
71570;SDS011;59407;42.682;23.322;2022-11-30T08:50:49;4.65;;;1.90;;
71570;SDS011;59407;42.682;23.322;2022-11-30T08:53:14;4.20;;;2.30;;
71570;SDS011;59407;42.682;23.322;2022-11-30T08:55:40;3.23;;;1.80;;
71570;SDS011;59407;42.682;23.322;2022-11-30T08:58:05;3.87;;;1.97;;
71570;SDS011;59407;42.682;23.322;2022-11-30T09:00:31;4.72;;;2.35;;
71570;SDS011;59407;42.682;23.322;2022-11-30T09:02:56;3.77;;;1.77;;
71570;SDS011;59407;42.682;23.322;2022-11-30T09:05:22;4.47;;;2.53;;
71570;SDS011;59407;42.682;23.322;2022-11-30T09:07:47;7.25;;;3.35;;
71570;SDS011;59407;42.682;23.322;2022-11-30T09:10:13;4.03;;;1.90;;
71570;SDS011;59407;42.682;23.322;2022-11-30T09:12:39;8.17;;;3.73;;
71570;SDS011;59407;42.682;23.322;2022-11-30T09:15:07;3.88;;;2.35;;
71570;SDS011;59407;42.682;23.322;2022-11-30T09:17:33;4.90;;;1.90;;
71570;SDS011;59407;42.682;23.322;2022-11-30T09:20:00;6.60;;;2.77;;
71570;SDS011;59407;42.682;23.322;2022-11-30T09:22:26;3.33;;;1.67;;
71570;SDS011;59407;42.682;23.322;2022-11-30T09:24:52;4.38;;;1.98;;
71570;SDS011;59407;42.682;23.322;2022-11-30T09:27:18;3.40;;;1.80;;
71570;SDS011;59407;42.682;23.322;2022-11-30T09:29:43;3.72;;;1.60;;
71570;SDS011;59407;42.682;23.322;2022-11-30T09:32:12;3.25;;;1.98;;
71570;SDS011;59407;42.682;23.322;2022-11-30T09:34:37;4.73;;;2.23;;
71570;SDS011;59407;42.682;23.322;2022-11-30T09:37:03;3.83;;;2.00;;
71570;SDS011;59407;42.682;23.322;2022-11-30T09:39:29;6.47;;;4.33;;
71570;SDS011;59407;42.682;23.322;2022-11-30T09:42:42;3.78;;;1.77;;
71570;SDS011;59407;42.682;23.322;2022-11-30T09:44:59;6.27;;;2.20;;
71570;SDS011;59407;42.682;23.322;2022-11-30T09:47:34;7.45;;;2.75;;
71570;SDS011;59407;42.682;23.322;2022-11-30T09:50:14;6.93;;;2.60;;
71570;SDS011;59407;42.682;23.322;2022-11-30T09:52:46;5.40;;;2.90;;
71570;SDS011;59407;42.682;23.322;2022-11-30T09:55:16;13.55;;;5.18;;
71570;SDS011;59407;42.682;23.322;2022-11-30T09:57:54;6.73;;;2.87;;
71570;SDS011;59407;42.682;23.322;2022-11-30T10:00:22;5.45;;;2.63;;
71570;SDS011;59407;42.682;23.322;2022-11-30T10:02:48;3.97;;;2.40;;
71570;SDS011;59407;42.682;23.322;2022-11-30T10:05:15;7.00;;;2.50;;
71570;SDS011;59407;42.682;23.322;2022-11-30T10:12:50;3.70;;;2.03;;
71570;SDS011;59407;42.682;23.322;2022-11-30T10:15:23;3.58;;;1.70;;
71570;SDS011;59407;42.682;23.322;2022-11-30T10:18:07;4.22;;;2.28;;
71570;SDS011;59407;42.682;23.322;2022-11-30T10:26:39;4.72;;;2.20;;
71570;SDS011;59407;42.682;23.322;2022-11-30T10:29:19;3.88;;;1.90;;
71570;SDS011;59407;42.682;23.322;2022-11-30T10:31:50;5.20;;;3.60;;
71570;SDS011;59407;42.682;23.322;2022-11-30T10:34:22;4.75;;;2.88;;
71570;SDS011;59407;42.682;23.322;2022-11-30T10:36:59;5.67;;;2.80;;
71570;SDS011;59407;42.682;23.322;2022-11-30T10:42:45;6.95;;;3.45;;
71570;SDS011;59407;42.682;23.322;2022-11-30T10:45:16;3.75;;;2.08;;
71570;SDS011;59407;42.682;23.322;2022-11-30T10:47:47;4.22;;;2.60;;
71570;SDS011;59407;42.682;23.322;2022-11-30T10:50:18;5.73;;;3.10;;
71570;SDS011;59407;42.682;23.322;2022-11-30T10:52:48;4.80;;;2.50;;
71570;SDS011;59407;42.682;23.322;2022-11-30T10:55:25;9.85;;;4.70;;
71570;SDS011;59407;42.682;23.322;2022-11-30T10:57:57;6.25;;;2.83;;
71570;SDS011;59407;42.682;23.322;2022-11-30T11:00:24;3.35;;;2.15;;
71570;SDS011;59407;42.682;23.322;2022-11-30T11:02:51;9.73;;;5.23;;
71570;SDS011;59407;42.682;23.322;2022-11-30T11:10:49;5.30;;;4.10;;
71570;SDS011;59407;42.682;23.322;2022-11-30T11:13:18;11.18;;;8.77;;
71570;SDS011;59407;42.682;23.322;2022-11-30T11:16:03;7.17;;;3.37;;
71570;SDS011;59407;42.682;23.322;2022-11-30T11:18:31;8.25;;;5.25;;
71570;SDS011;59407;42.682;23.322;2022-11-30T11:21:14;6.20;;;3.65;;
71570;SDS011;59407;42.682;23.322;2022-11-30T11:23:43;3.88;;;2.28;;
71570;SDS011;59407;42.682;23.322;2022-11-30T11:26:16;5.65;;;3.15;;
71570;SDS011;59407;42.682;23.322;2022-11-30T11:28:45;5.53;;;2.63;;
71570;SDS011;59407;42.682;23.322;2022-11-30T11:31:16;7.28;;;3.33;;
71570;SDS011;59407;42.682;23.322;2022-11-30T11:33:59;5.10;;;3.13;;
71570;SDS011;59407;42.682;23.322;2022-11-30T11:36:29;4.57;;;2.93;;
71570;SDS011;59407;42.682;23.322;2022-11-30T11:38:57;5.82;;;2.42;;
71570;SDS011;59407;42.682;23.322;2022-11-30T11:41:26;4.15;;;2.40;;
71570;SDS011;59407;42.682;23.322;2022-11-30T11:46:33;5.18;;;3.00;;
71570;SDS011;59407;42.682;23.322;2022-11-30T11:49:09;4.73;;;2.80;;
71570;SDS011;59407;42.682;23.322;2022-11-30T11:51:44;6.13;;;3.58;;
71570;SDS011;59407;42.682;23.322;2022-11-30T11:56:54;4.82;;;2.60;;
71570;SDS011;59407;42.682;23.322;2022-11-30T12:02:27;4.80;;;2.50;;
71570;SDS011;59407;42.682;23.322;2022-11-30T12:11:00;4.60;;;2.13;;
71570;SDS011;59407;42.682;23.322;2022-11-30T12:13:32;4.90;;;2.13;;
71570;SDS011;59407;42.682;23.322;2022-11-30T12:16:05;5.87;;;2.83;;
71570;SDS011;59407;42.682;23.322;2022-11-30T12:38:29;7.25;;;3.08;;
71570;SDS011;59407;42.682;23.322;2022-11-30T12:43:45;5.33;;;3.40;;
71570;SDS011;59407;42.682;23.322;2022-11-30T12:49:04;6.20;;;3.35;;
71570;SDS011;59407;42.682;23.322;2022-11-30T12:51:51;5.32;;;3.10;;
71570;SDS011;59407;42.682;23.322;2022-11-30T12:54:27;6.25;;;3.13;;
71570;SDS011;59407;42.682;23.322;2022-11-30T13:02:12;6.13;;;3.23;;
71570;SDS011;59407;42.682;23.322;2022-11-30T13:04:47;6.30;;;2.70;;
71570;SDS011;59407;42.682;23.322;2022-11-30T13:09:51;4.25;;;2.10;;
71570;SDS011;59407;42.682;23.322;2022-11-30T13:12:30;4.63;;;2.70;;
71570;SDS011;59407;42.682;23.322;2022-11-30T13:15:04;6.47;;;2.95;;
71570;SDS011;59407;42.682;23.322;2022-11-30T13:17:34;3.90;;;2.20;;
71570;SDS011;59407;42.682;23.322;2022-11-30T13:34:10;8.02;;;2.67;;
71570;SDS011;59407;42.682;23.322;2022-11-30T13:36:49;5.97;;;2.67;;
71570;SDS011;59407;42.682;23.322;2022-11-30T13:39:21;5.53;;;2.70;;
71570;SDS011;59407;42.682;23.322;2022-11-30T13:41:49;6.15;;;2.95;;
71570;SDS011;59407;42.682;23.322;2022-11-30T13:44:36;5.85;;;2.60;;
71570;SDS011;59407;42.682;23.322;2022-11-30T13:47:04;5.35;;;3.00;;
71570;SDS011;59407;42.682;23.322;2022-11-30T13:49:38;5.60;;;3.40;;
71570;SDS011;59407;42.682;23.322;2022-11-30T13:52:04;5.95;;;3.58;;
71570;SDS011;59407;42.682;23.322;2022-11-30T13:54:37;7.18;;;3.50;;
71570;SDS011;59407;42.682;23.322;2022-11-30T14:05:54;9.43;;;4.85;;
71570;SDS011;59407;42.682;23.322;2022-11-30T14:23:20;7.97;;;3.00;;
71570;SDS011;59407;42.682;23.322;2022-11-30T14:25:50;4.13;;;2.60;;
71570;SDS011;59407;42.682;23.322;2022-11-30T14:28:32;5.30;;;2.63;;
71570;SDS011;59407;42.682;23.322;2022-11-30T14:31:01;7.43;;;3.55;;
71570;SDS011;59407;42.682;23.322;2022-11-30T14:33:38;4.93;;;2.40;;
71570;SDS011;59407;42.682;23.322;2022-11-30T14:36:12;4.60;;;2.30;;
71570;SDS011;59407;42.682;23.322;2022-11-30T14:38:39;8.27;;;2.80;;
71570;SDS011;59407;42.682;23.322;2022-11-30T14:41:15;4.97;;;3.22;;
71570;SDS011;59407;42.682;23.322;2022-11-30T14:46:38;6.63;;;2.90;;
71570;SDS011;59407;42.682;23.322;2022-11-30T14:49:14;4.85;;;2.75;;
71570;SDS011;59407;42.682;23.322;2022-11-30T14:51:54;6.23;;;3.80;;
71570;SDS011;59407;42.682;23.322;2022-11-30T14:59:50;7.97;;;4.07;;
71570;SDS011;59407;42.682;23.322;2022-11-30T15:02:28;5.50;;;3.05;;
71570;SDS011;59407;42.682;23.322;2022-11-30T15:04:57;6.23;;;3.20;;
71570;SDS011;59407;42.682;23.322;2022-11-30T15:07:25;6.22;;;3.28;;
71570;SDS011;59407;42.682;23.322;2022-11-30T15:09:55;4.55;;;2.58;;
71570;SDS011;59407;42.682;23.322;2022-11-30T15:12:26;5.60;;;2.30;;
71570;SDS011;59407;42.682;23.322;2022-11-30T15:20:30;6.13;;;2.65;;
71570;SDS011;59407;42.682;23.322;2022-11-30T15:23:01;6.57;;;3.00;;
71570;SDS011;59407;42.682;23.322;2022-11-30T15:25:29;5.40;;;3.27;;
71570;SDS011;59407;42.682;23.322;2022-11-30T15:28:04;5.40;;;2.80;;
71570;SDS011;59407;42.682;23.322;2022-11-30T15:30:33;6.65;;;3.42;;
71570;SDS011;59407;42.682;23.322;2022-11-30T15:33:00;8.98;;;4.07;;
71570;SDS011;59407;42.682;23.322;2022-11-30T15:35:26;5.63;;;2.90;;
71570;SDS011;59407;42.682;23.322;2022-11-30T15:37:52;7.32;;;3.90;;
71570;SDS011;59407;42.682;23.322;2022-11-30T15:40:31;5.87;;;3.40;;
71570;SDS011;59407;42.682;23.322;2022-11-30T15:42:59;7.70;;;4.03;;
71570;SDS011;59407;42.682;23.322;2022-11-30T15:45:34;8.65;;;4.30;;
71570;SDS011;59407;42.682;23.322;2022-11-30T15:48:01;6.00;;;3.58;;
71570;SDS011;59407;42.682;23.322;2022-11-30T15:52:53;4.40;;;2.75;;
71570;SDS011;59407;42.682;23.322;2022-11-30T15:58:25;6.22;;;3.40;;
71570;SDS011;59407;42.682;23.322;2022-11-30T16:06:19;6.47;;;4.28;;
71570;SDS011;59407;42.682;23.322;2022-11-30T16:08:46;6.90;;;3.97;;
71570;SDS011;59407;42.682;23.322;2022-11-30T16:11:12;4.53;;;2.78;;
71570;SDS011;59407;42.682;23.322;2022-11-30T16:13:39;4.95;;;2.60;;
71570;SDS011;59407;42.682;23.322;2022-11-30T16:16:12;5.85;;;2.60;;
71570;SDS011;59407;42.682;23.322;2022-11-30T16:18:46;6.53;;;3.80;;
71570;SDS011;59407;42.682;23.322;2022-11-30T16:21:12;6.60;;;3.50;;
71570;SDS011;59407;42.682;23.322;2022-11-30T16:23:43;6.50;;;3.47;;
71570;SDS011;59407;42.682;23.322;2022-11-30T16:26:10;5.95;;;3.22;;
71570;SDS011;59407;42.682;23.322;2022-11-30T16:28:37;5.18;;;2.75;;
71570;SDS011;59407;42.682;23.322;2022-11-30T16:31:04;8.50;;;4.00;;
71570;SDS011;59407;42.682;23.322;2022-11-30T16:33:30;5.18;;;3.08;;
71570;SDS011;59407;42.682;23.322;2022-11-30T16:36:00;8.70;;;3.67;;
71570;SDS011;59407;42.682;23.322;2022-11-30T16:38:30;4.75;;;2.55;;
71570;SDS011;59407;42.682;23.322;2022-11-30T16:41:08;6.30;;;3.40;;
71570;SDS011;59407;42.682;23.322;2022-11-30T16:43:57;6.70;;;3.70;;
71570;SDS011;59407;42.682;23.322;2022-11-30T16:46:23;5.63;;;3.10;;
71570;SDS011;59407;42.682;23.322;2022-11-30T16:48:50;5.60;;;2.90;;
71570;SDS011;59407;42.682;23.322;2022-11-30T16:53:44;7.15;;;3.53;;
71570;SDS011;59407;42.682;23.322;2022-11-30T16:56:11;7.22;;;2.83;;
71570;SDS011;59407;42.682;23.322;2022-11-30T16:58:38;5.03;;;2.67;;
71570;SDS011;59407;42.682;23.322;2022-11-30T17:01:05;5.30;;;2.90;;
71570;SDS011;59407;42.682;23.322;2022-11-30T17:03:36;7.80;;;2.92;;
71570;SDS011;59407;42.682;23.322;2022-11-30T17:06:07;6.60;;;3.08;;
71570;SDS011;59407;42.682;23.322;2022-11-30T17:08:40;5.70;;;2.80;;
71570;SDS011;59407;42.682;23.322;2022-11-30T17:11:08;5.53;;;2.90;;
71570;SDS011;59407;42.682;23.322;2022-11-30T17:13:49;7.70;;;3.40;;
71570;SDS011;59407;42.682;23.322;2022-11-30T17:16:15;7.30;;;3.80;;